Time;durP1;ratioP1;P1;durP2;ratioP2;P2;SDS_P1;SDS_P2;PMS_P1;PMS_P2;Temp;Humidity;BMP_temperature;BMP_pressure;BME280_temperature;BME280_humidity;BME280_pressure;Samples;Min_cycle;Max_cycle;Signal;HPM_P1;HPM_P2
2023/07/31 00:00:46;;;;;;;;;;;19.80;73.90;;;;;;4978422;28;19930;-75
2023/07/31 00:03:12;;;;;;;;;;;19.70;73.90;;;;;;4985468;28;19926;-75
2023/07/31 00:05:39;;;;;;;;;;;19.70;74.00;;;;;;4981592;28;19933;-75
2023/07/31 00:08:05;;;;;;;;;;;19.70;74.10;;;;;;4983834;28;19951;-76
2023/07/31 00:10:34;;;;;;;;;;;19.70;74.20;;;;;;4983331;28;19936;-77
2023/07/31 00:13:00;;;;;;;;;;;19.60;74.30;;;;;;4983943;28;20026;-75
2023/07/31 00:15:27;;;;;;;;;;;19.60;74.40;;;;;;4982649;28;20395;-75
2023/07/31 00:17:54;;;;;;;;;;;19.60;74.60;;;;;;4985657;28;19934;-75
2023/07/31 00:20:20;;;;;;;;;;;19.60;74.70;;;;;;4984162;28;19938;-74
2023/07/31 00:22:47;;;;;;;;;;;19.60;74.50;;;;;;4985666;28;19930;-75
2023/07/31 00:25:13;;;;;;;;;;;19.60;74.50;;;;;;4985699;28;19941;-75
2023/07/31 00:27:44;;;;;;;;;;;19.50;74.60;;;;;;4981188;28;20156;-76
2023/07/31 00:30:11;;;;;;;;;;;19.50;74.60;;;;;;4979031;28;21006;-75
2023/07/31 00:32:37;;;;;;;;;;;19.50;74.80;;;;;;4982496;28;20015;-74
2023/07/31 00:35:04;;;;;;;;;;;19.50;74.90;;;;;;4980204;28;19964;-75
2023/07/31 00:37:31;;;;;;;;;;;19.50;75.00;;;;;;4980094;28;20290;-75
2023/07/31 00:39:58;;;;;;;;;;;19.40;75.20;;;;;;4981549;28;19945;-75
2023/07/31 00:42:25;;;;;;;;;;;19.40;75.30;;;;;;4983777;28;19930;-75
2023/07/31 00:44:52;;;;;;;;;;;19.40;75.50;;;;;;4978769;28;19935;-75
2023/07/31 00:47:19;;;;;;;;;;;19.40;75.50;;;;;;4980395;28;19934;-75
2023/07/31 00:49:46;;;;;;;;;;;19.40;75.50;;;;;;4985935;28;19938;-76
2023/07/31 00:52:13;;;;;;;;;;;19.40;75.50;;;;;;4985553;28;19937;-75
2023/07/31 00:54:39;;;;;;;;;;;19.40;75.30;;;;;;4983386;28;19938;-74
2023/07/31 00:57:07;;;;;;;;;;;19.40;75.40;;;;;;4985065;28;19929;-75
2023/07/31 00:59:34;;;;;;;;;;;19.30;75.30;;;;;;4986367;28;20003;-75
2023/07/31 01:02:02;;;;;;;;;;;19.30;75.30;;;;;;4984891;28;19929;-75
2023/07/31 01:04:28;;;;;;;;;;;19.30;75.30;;;;;;4984546;28;19936;-76
2023/07/31 01:06:57;;;;;;;;;;;19.30;75.20;;;;;;4985353;28;19930;-75
2023/07/31 01:09:37;;;;;;;;;;;19.30;75.30;;;;;;4980332;28;19929;-75
2023/07/31 01:12:04;;;;;;;;;;;19.30;75.40;;;;;;4986567;28;19937;-74
2023/07/31 01:14:31;;;;;;;;;;;19.30;75.40;;;;;;4983355;28;20403;-75
2023/07/31 01:16:58;;;;;;;;;;;19.30;75.40;;;;;;4987118;28;19929;-75
2023/07/31 01:19:26;;;;;;;;;;;19.20;75.30;;;;;;4986856;28;19930;-75
2023/07/31 01:22:13;;;;;;;;;;;19.20;75.30;;;;;;4984794;28;19929;-74
2023/07/31 01:24:50;;;;;;;;;;;19.20;75.20;;;;;;4982670;28;19941;-75
2023/07/31 01:27:22;;;;;;;;;;;19.20;75.00;;;;;;4985705;28;19936;-75
2023/07/31 01:29:53;;;;;;;;;;;19.20;75.10;;;;;;4982446;28;19933;-75
2023/07/31 01:32:20;;;;;;;;;;;19.20;75.00;;;;;;4985584;28;19934;-75
2023/07/31 01:34:47;;;;;;;;;;;19.20;75.00;;;;;;4985257;28;19937;-75
2023/07/31 01:37:14;;;;;;;;;;;19.10;75.10;;;;;;4985952;28;19973;-75
2023/07/31 01:39:40;;;;;;;;;;;19.10;75.20;;;;;;4984234;28;19930;-76
2023/07/31 01:42:07;;;;;;;;;;;19.20;75.20;;;;;;4986512;28;19937;-75
2023/07/31 01:44:35;;;;;;;;;;;19.10;75.10;;;;;;4985276;28;19992;-75
2023/07/31 01:47:01;;;;;;;;;;;19.10;75.20;;;;;;4984982;28;20139;-76
2023/07/31 01:49:28;;;;;;;;;;;19.10;75.40;;;;;;4985465;28;19937;-76
2023/07/31 01:51:55;;;;;;;;;;;19.00;75.40;;;;;;4982118;28;19941;-76
2023/07/31 01:54:21;;;;;;;;;;;19.00;75.40;;;;;;4984607;28;19937;-75
2023/07/31 01:56:48;;;;;;;;;;;19.10;75.40;;;;;;4983203;28;19934;-74
2023/07/31 01:59:14;;;;;;;;;;;19.00;75.00;;;;;;4984917;28;19929;-75
2023/07/31 02:01:42;;;;;;;;;;;19.00;75.00;;;;;;4980341;28;19941;-75
2023/07/31 02:04:09;;;;;;;;;;;19.00;75.10;;;;;;4984190;28;19926;-76
2023/07/31 02:06:37;;;;;;;;;;;19.00;75.10;;;;;;4981847;28;21373;-75
2023/07/31 02:09:04;;;;;;;;;;;19.00;75.00;;;;;;4984799;28;19937;-75
2023/07/31 02:11:31;;;;;;;;;;;18.90;74.90;;;;;;4987351;28;19934;-76
2023/07/31 02:13:57;;;;;;;;;;;18.90;74.80;;;;;;4983076;28;19933;-75
2023/07/31 02:16:24;;;;;;;;;;;18.90;74.80;;;;;;4986025;28;19938;-76
2023/07/31 02:18:52;;;;;;;;;;;18.90;74.80;;;;;;4986038;28;19933;-74
2023/07/31 02:21:18;;;;;;;;;;;18.90;74.50;;;;;;4981230;28;19929;-75
2023/07/31 02:23:45;;;;;;;;;;;18.90;74.40;;;;;;4985953;28;19941;-75
2023/07/31 02:26:11;;;;;;;;;;;18.90;74.60;;;;;;4978173;28;19937;-75
2023/07/31 02:28:38;;;;;;;;;;;18.90;74.40;;;;;;4982850;28;20541;-75
2023/07/31 02:31:04;;;;;;;;;;;18.80;74.30;;;;;;4984991;28;20443;-75
2023/07/31 02:33:31;;;;;;;;;;;18.80;74.30;;;;;;4985281;28;19934;-75
2023/07/31 02:35:59;;;;;;;;;;;18.80;74.40;;;;;;4983543;28;19937;-75
2023/07/31 02:38:25;;;;;;;;;;;18.80;74.40;;;;;;4980954;28;19942;-75
2023/07/31 02:40:52;;;;;;;;;;;18.80;74.50;;;;;;4983651;28;19930;-75
2023/07/31 02:43:19;;;;;;;;;;;18.80;74.50;;;;;;4981792;28;19934;-75
2023/07/31 02:45:45;;;;;;;;;;;18.80;74.60;;;;;;4982709;28;19929;-75
2023/07/31 02:48:12;;;;;;;;;;;18.80;74.70;;;;;;4980598;28;20320;-75
2023/07/31 02:50:38;;;;;;;;;;;18.80;74.60;;;;;;4979476;28;19938;-75
2023/07/31 02:53:06;;;;;;;;;;;18.70;74.70;;;;;;4982903;28;19934;-75
2023/07/31 02:55:33;;;;;;;;;;;18.70;75.00;;;;;;4985450;28;19930;-75
2023/07/31 02:57:59;;;;;;;;;;;18.70;74.70;;;;;;4983481;28;19929;-75
2023/07/31 03:00:26;;;;;;;;;;;18.70;74.80;;;;;;4982510;28;19956;-75
2023/07/31 03:02:52;;;;;;;;;;;18.70;74.90;;;;;;4983088;28;19940;-75
2023/07/31 03:05:19;;;;;;;;;;;18.70;74.80;;;;;;4982121;28;20415;-75
2023/07/31 03:07:45;;;;;;;;;;;18.70;75.00;;;;;;4984294;28;19929;-75
2023/07/31 03:10:13;;;;;;;;;;;18.70;75.00;;;;;;4985286;28;19934;-75
2023/07/31 03:12:41;;;;;;;;;;;18.70;75.10;;;;;;4985252;28;20392;-76
2023/07/31 03:15:08;;;;;;;;;;;18.70;75.30;;;;;;4984130;28;19930;-76
2023/07/31 03:17:34;;;;;;;;;;;18.70;75.20;;;;;;4986089;28;19942;-75
2023/07/31 03:20:01;;;;;;;;;;;18.60;75.00;;;;;;4977149;28;19945;-75
2023/07/31 03:22:28;;;;;;;;;;;18.60;74.90;;;;;;4986205;28;20012;-74
2023/07/31 03:24:54;;;;;;;;;;;18.60;74.80;;;;;;4978969;28;19937;-75
2023/07/31 03:27:22;;;;;;;;;;;18.60;74.90;;;;;;4980526;28;19930;-75
2023/07/31 03:29:51;;;;;;;;;;;18.60;75.00;;;;;;4981442;28;19937;-75
2023/07/31 03:32:17;;;;;;;;;;;18.60;75.00;;;;;;4983599;28;20095;-75
2023/07/31 03:34:44;;;;;;;;;;;18.60;75.00;;;;;;4984649;28;20411;-75
2023/07/31 03:37:10;;;;;;;;;;;18.60;75.20;;;;;;4984367;28;19937;-75
2023/07/31 03:39:37;;;;;;;;;;;18.50;75.00;;;;;;4984080;28;20363;-75
2023/07/31 03:42:03;;;;;;;;;;;18.50;75.00;;;;;;4985072;28;20469;-75
2023/07/31 03:44:30;;;;;;;;;;;18.50;75.00;;;;;;4983691;28;19929;-75
2023/07/31 03:46:57;;;;;;;;;;;18.50;74.90;;;;;;4977070;28;19930;-75
2023/07/31 03:49:24;;;;;;;;;;;18.50;75.00;;;;;;4982918;28;19934;-75
2023/07/31 03:51:50;;;;;;;;;;;18.50;74.90;;;;;;4978656;28;19978;-74
2023/07/31 03:54:17;;;;;;;;;;;18.50;75.00;;;;;;4979460;28;19929;-75
2023/07/31 03:56:43;;;;;;;;;;;18.50;75.00;;;;;;4983860;28;20257;-74
2023/07/31 03:59:10;;;;;;;;;;;18.50;75.10;;;;;;4985158;28;20259;-75
2023/07/31 04:01:38;;;;;;;;;;;18.50;75.10;;;;;;4976658;28;20407;-74
2023/07/31 04:04:05;;;;;;;;;;;18.50;75.20;;;;;;4983212;28;20368;-74
2023/07/31 04:06:31;;;;;;;;;;;18.40;75.10;;;;;;4982646;28;19938;-75
2023/07/31 04:08:58;;;;;;;;;;;18.40;75.30;;;;;;4982796;28;19969;-75
2023/07/31 04:11:24;;;;;;;;;;;18.40;75.00;;;;;;4981063;28;19930;-75
2023/07/31 04:13:51;;;;;;;;;;;18.40;75.10;;;;;;4985467;28;20136;-75
2023/07/31 04:16:17;;;;;;;;;;;18.40;75.20;;;;;;4982203;28;19937;-75
2023/07/31 04:18:45;;;;;;;;;;;18.40;75.00;;;;;;4980557;28;19945;-75
2023/07/31 04:21:12;;;;;;;;;;;18.40;74.90;;;;;;4980821;28;20408;-74
2023/07/31 04:23:38;;;;;;;;;;;18.40;75.00;;;;;;4986188;28;20339;-75
2023/07/31 04:26:05;;;;;;;;;;;18.40;75.20;;;;;;4985583;28;19949;-75
2023/07/31 04:28:32;;;;;;;;;;;18.30;75.10;;;;;;4983970;28;19941;-75
2023/07/31 04:30:59;;;;;;;;;;;18.30;75.10;;;;;;4983437;28;19997;-75
2023/07/31 04:33:25;;;;;;;;;;;18.30;75.80;;;;;;4982960;28;19981;-74
2023/07/31 04:35:54;;;;;;;;;;;18.30;75.20;;;;;;4984933;28;19937;-75
2023/07/31 04:38:21;;;;;;;;;;;18.30;75.30;;;;;;4988140;28;19940;-75
2023/07/31 04:40:47;;;;;;;;;;;18.30;75.80;;;;;;4987775;28;20501;-75
2023/07/31 04:43:14;;;;;;;;;;;18.30;75.40;;;;;;4982872;28;19929;-75
2023/07/31 04:45:43;;;;;;;;;;;18.30;75.40;;;;;;4984621;28;19959;-74
2023/07/31 04:48:09;;;;;;;;;;;18.30;75.40;;;;;;4987144;28;19936;-76
2023/07/31 04:50:36;;;;;;;;;;;18.30;75.40;;;;;;4988051;28;19929;-74
2023/07/31 04:53:04;;;;;;;;;;;18.30;75.50;;;;;;4983541;28;19937;-74
2023/07/31 04:55:30;;;;;;;;;;;18.40;75.30;;;;;;4988983;28;19936;-76
2023/07/31 04:57:58;;;;;;;;;;;18.30;75.30;;;;;;4988309;28;19930;-75
2023/07/31 05:00:25;;;;;;;;;;;18.30;75.40;;;;;;4986692;28;19936;-74
2023/07/31 05:02:51;;;;;;;;;;;18.30;75.60;;;;;;4984511;28;19933;-75
2023/07/31 05:05:18;;;;;;;;;;;18.30;75.80;;;;;;4986724;28;20371;-75
2023/07/31 05:07:44;;;;;;;;;;;18.30;75.80;;;;;;4990992;28;20029;-75
2023/07/31 05:10:12;;;;;;;;;;;18.30;76.60;;;;;;4987873;28;19930;-75
2023/07/31 05:12:39;;;;;;;;;;;18.20;75.80;;;;;;4988112;28;19936;-75
2023/07/31 05:15:06;;;;;;;;;;;18.30;76.00;;;;;;4977937;28;19937;-74
2023/07/31 05:17:33;;;;;;;;;;;18.30;76.10;;;;;;4987875;28;20392;-75
2023/07/31 05:19:59;;;;;;;;;;;18.30;76.10;;;;;;4983328;28;19930;-75
2023/07/31 05:22:26;;;;;;;;;;;18.30;76.10;;;;;;4980790;28;19930;-75
2023/07/31 05:24:54;;;;;;;;;;;18.30;76.20;;;;;;4988454;28;19941;-76
2023/07/31 05:27:21;;;;;;;;;;;18.20;76.10;;;;;;4986325;28;20388;-75
2023/07/31 05:29:48;;;;;;;;;;;18.20;76.10;;;;;;4988077;28;19929;-76
2023/07/31 05:32:14;;;;;;;;;;;18.20;76.20;;;;;;4986476;28;19929;-75
2023/07/31 05:34:42;;;;;;;;;;;18.20;76.30;;;;;;4984362;28;19934;-76
2023/07/31 05:37:08;;;;;;;;;;;18.20;76.40;;;;;;4984302;28;19926;-75
2023/07/31 05:39:35;;;;;;;;;;;18.20;76.30;;;;;;4984994;28;19933;-76
2023/07/31 05:42:01;;;;;;;;;;;18.20;76.30;;;;;;4986918;28;19930;-75
2023/07/31 05:44:30;;;;;;;;;;;18.20;76.40;;;;;;4984921;28;19930;-75
2023/07/31 05:46:56;;;;;;;;;;;18.30;76.50;;;;;;4983386;28;20032;-76
2023/07/31 05:49:23;;;;;;;;;;;18.20;76.50;;;;;;4984655;28;19941;-76
2023/07/31 05:51:49;;;;;;;;;;;18.30;76.50;;;;;;4982282;28;19930;-75
2023/07/31 05:54:16;;;;;;;;;;;18.30;74.40;;;;;;4981127;28;19940;-76
2023/07/31 05:56:42;;;;;;;;;;;18.40;73.60;;;;;;4983103;28;20150;-77
2023/07/31 05:59:09;;;;;;;;;;;18.40;73.50;;;;;;4987133;28;19929;-76
2023/07/31 06:01:37;;;;;;;;;;;18.40;74.00;;;;;;4975003;28;20459;-77
2023/07/31 06:04:04;;;;;;;;;;;18.40;74.40;;;;;;4978032;28;20005;-76
2023/07/31 06:06:30;;;;;;;;;;;18.30;74.70;;;;;;4985803;28;19930;-77
2023/07/31 06:08:57;;;;;;;;;;;18.30;74.90;;;;;;4985204;28;19937;-77
2023/07/31 06:11:23;;;;;;;;;;;18.30;75.20;;;;;;4986637;28;19941;-77
2023/07/31 06:13:50;;;;;;;;;;;18.30;75.20;;;;;;4985180;28;19937;-77
2023/07/31 06:16:17;;;;;;;;;;;18.30;75.50;;;;;;4987071;28;19930;-77
2023/07/31 06:18:45;;;;;;;;;;;18.30;75.60;;;;;;4987620;28;19938;-77
2023/07/31 06:21:11;;;;;;;;;;;18.30;75.70;;;;;;4983425;28;20392;-77
2023/07/31 06:23:38;;;;;;;;;;;18.30;75.80;;;;;;4984763;28;19933;-77
2023/07/31 06:26:04;;;;;;;;;;;18.30;75.90;;;;;;4987474;28;19938;-76
2023/07/31 06:28:31;;;;;;;;;;;18.30;76.00;;;;;;4980716;28;19933;-77
2023/07/31 06:30:58;;;;;;;;;;;18.30;76.10;;;;;;4983492;28;19930;-76
2023/07/31 06:33:25;;;;;;;;;;;18.30;76.10;;;;;;4987311;28;19934;-77
2023/07/31 06:35:53;;;;;;;;;;;18.30;76.10;;;;;;4984701;28;19946;-77
2023/07/31 06:38:19;;;;;;;;;;;18.30;76.20;;;;;;4985606;28;19934;-77
2023/07/31 06:40:46;;;;;;;;;;;18.30;76.20;;;;;;4985666;28;19937;-77
2023/07/31 06:43:12;;;;;;;;;;;18.40;76.30;;;;;;4982415;28;19930;-77
2023/07/31 06:45:39;;;;;;;;;;;18.40;76.30;;;;;;4981379;28;19937;-77
2023/07/31 06:48:06;;;;;;;;;;;18.40;76.40;;;;;;4984939;28;19940;-77
2023/07/31 06:50:32;;;;;;;;;;;18.40;76.40;;;;;;4984308;28;20415;-77
2023/07/31 06:53:00;;;;;;;;;;;18.40;76.40;;;;;;4984203;28;19929;-77
2023/07/31 06:55:27;;;;;;;;;;;18.40;76.40;;;;;;4986078;28;19957;-77
2023/07/31 06:57:54;;;;;;;;;;;18.50;76.50;;;;;;4982941;28;20587;-77
2023/07/31 07:00:21;;;;;;;;;;;18.40;76.30;;;;;;4982232;28;19929;-77
2023/07/31 07:02:48;;;;;;;;;;;18.50;76.40;;;;;;4982719;28;19948;-77
2023/07/31 07:05:15;;;;;;;;;;;18.50;76.30;;;;;;4981470;28;19936;-77
2023/07/31 07:07:41;;;;;;;;;;;18.50;76.30;;;;;;4986367;28;20409;-76
2023/07/31 07:10:10;;;;;;;;;;;18.50;76.20;;;;;;4987397;28;19949;-78
2023/07/31 07:12:36;;;;;;;;;;;18.50;76.20;;;;;;4982265;28;19930;-77
2023/07/31 07:15:03;;;;;;;;;;;18.60;76.10;;;;;;4984147;28;19936;-77
2023/07/31 07:17:31;;;;;;;;;;;18.50;76.10;;;;;;4982591;28;19934;-77
2023/07/31 07:19:57;;;;;;;;;;;18.60;76.10;;;;;;4983432;28;20009;-77
2023/07/31 07:22:24;;;;;;;;;;;18.60;76.00;;;;;;4976130;28;19940;-77
2023/07/31 07:24:50;;;;;;;;;;;18.60;76.00;;;;;;4983418;28;19934;-77
2023/07/31 07:27:18;;;;;;;;;;;18.60;75.90;;;;;;4982917;28;19936;-77
2023/07/31 07:29:46;;;;;;;;;;;18.60;76.00;;;;;;4983258;28;19934;-77
2023/07/31 07:32:13;;;;;;;;;;;18.60;75.80;;;;;;4981460;28;19925;-77
2023/07/31 07:34:39;;;;;;;;;;;18.70;75.90;;;;;;4980902;28;19930;-76
2023/07/31 07:37:06;;;;;;;;;;;18.70;75.90;;;;;;4982911;28;19937;-76
2023/07/31 07:39:33;;;;;;;;;;;18.70;75.90;;;;;;4984291;28;20490;-77
2023/07/31 07:41:59;;;;;;;;;;;18.80;75.80;;;;;;4982516;28;19936;-77
2023/07/31 07:44:27;;;;;;;;;;;18.70;75.70;;;;;;4983214;28;19936;-77
2023/07/31 07:46:54;;;;;;;;;;;18.80;76.30;;;;;;4978550;28;19930;-78
2023/07/31 07:49:22;;;;;;;;;;;18.80;75.60;;;;;;4980821;28;20670;-75
2023/07/31 07:51:48;;;;;;;;;;;18.80;75.50;;;;;;4977025;28;19975;-76
2023/07/31 07:54:16;;;;;;;;;;;18.80;75.50;;;;;;4982991;28;19930;-76
2023/07/31 07:56:43;;;;;;;;;;;18.80;75.50;;;;;;4983891;28;20226;-76
2023/07/31 07:59:09;;;;;;;;;;;18.90;75.50;;;;;;4980063;28;19930;-76
2023/07/31 08:01:37;;;;;;;;;;;18.90;75.30;;;;;;4981564;28;19930;-76
2023/07/31 08:04:04;;;;;;;;;;;18.90;75.30;;;;;;4983016;28;20634;-76
2023/07/31 08:06:31;;;;;;;;;;;18.90;75.20;;;;;;4978868;28;19930;-76
2023/07/31 08:08:57;;;;;;;;;;;18.90;75.30;;;;;;4984503;28;19929;-76
2023/07/31 08:11:24;;;;;;;;;;;19.00;75.30;;;;;;4983451;28;19934;-77
2023/07/31 08:13:50;;;;;;;;;;;19.00;75.40;;;;;;4983949;28;19984;-77
2023/07/31 08:16:17;;;;;;;;;;;19.00;75.40;;;;;;4982320;28;19929;-76
2023/07/31 08:18:45;;;;;;;;;;;19.00;75.30;;;;;;4984363;28;19941;-76
2023/07/31 08:21:11;;;;;;;;;;;19.00;75.40;;;;;;4978685;28;19937;-76
2023/07/31 08:23:38;;;;;;;;;;;19.00;75.50;;;;;;4976920;28;19930;-76
2023/07/31 08:26:04;;;;;;;;;;;19.00;75.50;;;;;;4985809;28;19929;-76
2023/07/31 08:28:31;;;;;;;;;;;19.10;75.30;;;;;;4977476;28;19937;-77
2023/07/31 08:30:57;;;;;;;;;;;19.10;75.20;;;;;;4979065;28;19933;-76
2023/07/31 08:33:24;;;;;;;;;;;19.10;75.00;;;;;;4979344;28;19929;-77
2023/07/31 08:35:52;;;;;;;;;;;19.10;75.00;;;;;;4982023;28;19930;-76
2023/07/31 08:38:19;;;;;;;;;;;19.10;74.80;;;;;;4985735;28;19960;-76
2023/07/31 08:40:46;;;;;;;;;;;19.20;74.80;;;;;;4982095;28;19984;-77
2023/07/31 08:43:12;;;;;;;;;;;19.10;74.70;;;;;;4981807;28;19934;-77
2023/07/31 08:45:39;;;;;;;;;;;19.20;74.60;;;;;;4975813;28;20443;-77
2023/07/31 08:48:06;;;;;;;;;;;19.20;74.50;;;;;;4982267;28;19953;-76
2023/07/31 08:50:33;;;;;;;;;;;19.20;74.50;;;;;;4981315;28;20550;-76
2023/07/31 08:53:01;;;;;;;;;;;19.30;74.60;;;;;;4981432;28;19946;-77
2023/07/31 08:55:28;;;;;;;;;;;19.30;74.50;;;;;;4983172;28;19930;-77
2023/07/31 08:57:54;;;;;;;;;;;19.30;74.50;;;;;;4985089;28;20293;-76
2023/07/31 09:00:23;;;;;;;;;;;19.40;74.50;;;;;;4981021;28;19930;-77
2023/07/31 09:02:53;;;;;;;;;;;19.40;74.40;;;;;;4979356;28;19944;-77
2023/07/31 09:05:19;;;;;;;;;;;19.40;74.40;;;;;;4982629;28;19936;-76
2023/07/31 09:07:47;;;;;;;;;;;19.50;74.10;;;;;;4985265;28;19934;-77
2023/07/31 09:10:15;;;;;;;;;;;19.50;74.00;;;;;;4987381;28;20323;-77
2023/07/31 09:12:42;;;;;;;;;;;19.60;74.70;;;;;;4981604;28;19926;-76
2023/07/31 09:15:09;;;;;;;;;;;19.60;73.80;;;;;;4984883;28;19930;-77
2023/07/31 09:17:36;;;;;;;;;;;19.60;73.80;;;;;;4983302;28;19931;-76
2023/07/31 09:20:13;;;;;;;;;;;19.70;73.80;;;;;;4981683;28;19926;-76
2023/07/31 09:22:40;;;;;;;;;;;19.70;73.50;;;;;;4987297;28;20572;-77
2023/07/31 09:25:17;;;;;;;;;;;19.80;73.40;;;;;;4981733;28;20320;-78
2023/07/31 09:27:47;;;;;;;;;;;19.80;73.40;;;;;;4985732;28;19929;-77
2023/07/31 09:30:13;;;;;;;;;;;19.90;73.30;;;;;;4978566;28;19930;-77
2023/07/31 09:32:40;;;;;;;;;;;19.90;73.30;;;;;;4987962;28;19936;-77
2023/07/31 09:35:14;;;;;;;;;;;19.90;73.00;;;;;;4986048;28;19930;-76
2023/07/31 09:37:40;;;;;;;;;;;20.00;72.90;;;;;;4987750;28;19930;-77
2023/07/31 09:40:07;;;;;;;;;;;20.00;72.60;;;;;;4986203;28;20400;-77
2023/07/31 09:42:36;;;;;;;;;;;20.00;72.50;;;;;;4987015;28;19957;-76
2023/07/31 09:45:09;;;;;;;;;;;20.10;72.50;;;;;;4987411;28;19936;-77
2023/07/31 09:47:36;;;;;;;;;;;20.10;72.60;;;;;;5010382;28;20462;-77
2023/07/31 09:50:08;;;;;;;;;;;20.20;72.40;;;;;;5008913;28;19938;-77
2023/07/31 09:52:34;;;;;;;;;;;20.20;72.30;;;;;;5008729;28;20319;-76
2023/07/31 09:55:01;;;;;;;;;;;20.30;72.20;;;;;;5012908;28;20466;-78
2023/07/31 09:57:28;;;;;;;;;;;20.30;72.10;;;;;;5008877;28;19933;-78
2023/07/31 09:59:56;;;;;;;;;;;20.40;71.80;;;;;;5010655;28;19930;-76
2023/07/31 10:02:23;;;;;;;;;;;20.50;71.80;;;;;;4988256;28;19930;-77
2023/07/31 10:04:50;;;;;;;;;;;20.50;71.60;;;;;;4989605;28;20039;-79
2023/07/31 10:07:18;;;;;;;;;;;20.60;71.60;;;;;;4987336;28;19929;-77
2023/07/31 10:09:45;;;;;;;;;;;20.60;71.30;;;;;;4990124;28;19941;-77
2023/07/31 10:12:13;;;;;;;;;;;20.70;71.10;;;;;;4990521;28;19940;-78
2023/07/31 10:14:40;;;;;;;;;;;20.80;71.10;;;;;;4986623;28;19941;-77
2023/07/31 10:17:09;;;;;;;;;;;20.80;70.80;;;;;;5007165;28;19936;-77
2023/07/31 10:19:36;;;;;;;;;;;20.90;70.50;;;;;;5008258;28;19929;-77
2023/07/31 10:22:04;;;;;;;;;;;20.90;70.60;;;;;;4998354;28;19936;-77
2023/07/31 10:24:30;;;;;;;;;;;21.00;70.50;;;;;;5008260;28;19929;-77
2023/07/31 10:26:58;;;;;;;;;;;21.00;70.40;;;;;;5010010;28;19941;-77
2023/07/31 10:29:25;;;;;;;;;;;21.00;70.20;;;;;;5007757;28;19933;-76
2023/07/31 10:31:52;;;;;;;;;;;21.00;69.90;;;;;;4991983;28;19930;-77
2023/07/31 10:34:20;;;;;;;;;;;21.10;70.10;;;;;;4991349;28;19933;-78
2023/07/31 10:36:46;;;;;;;;;;;21.10;69.90;;;;;;4987222;28;19933;-77
2023/07/31 10:39:28;;;;;;;;;;;21.10;69.80;;;;;;4990947;28;19933;-77
2023/07/31 10:41:54;;;;;;;;;;;21.20;70.50;;;;;;4989155;28;19941;-78
2023/07/31 10:44:21;;;;;;;;;;;21.20;69.80;;;;;;4985823;28;20284;-75
2023/07/31 10:46:47;;;;;;;;;;;21.30;68.30;;;;;;5000220;28;19929;-76
2023/07/31 10:49:21;;;;;;;;;;;21.70;65.30;;;;;;5002026;28;19958;-75
2023/07/31 10:51:49;;;;;;;;;;;21.90;65.00;;;;;;5002412;28;19934;-76
2023/07/31 10:54:17;;;;;;;;;;;22.10;65.30;;;;;;5004659;28;19926;-75
2023/07/31 10:56:45;;;;;;;;;;;22.20;65.30;;;;;;5011385;28;19977;-76
2023/07/31 10:59:13;;;;;;;;;;;22.20;65.30;;;;;;5005808;28;20383;-75
2023/07/31 11:01:52;;;;;;;;;;;22.30;65.40;;;;;;5004293;28;19929;-75
2023/07/31 11:04:23;;;;;;;;;;;22.40;65.00;;;;;;5002313;28;19961;-76
2023/07/31 11:06:57;;;;;;;;;;;22.50;64.90;;;;;;5003556;28;19930;-76
2023/07/31 11:09:25;;;;;;;;;;;22.50;64.60;;;;;;5002934;28;20011;-75
2023/07/31 11:11:52;;;;;;;;;;;22.60;64.50;;;;;;5004736;28;19929;-77
2023/07/31 11:14:18;;;;;;;;;;;22.60;64.50;;;;;;4999554;28;20032;-76
2023/07/31 11:16:45;;;;;;;;;;;22.70;64.30;;;;;;4993515;28;19941;-76
2023/07/31 11:19:11;;;;;;;;;;;22.70;64.60;;;;;;4988719;28;19941;-76
2023/07/31 11:21:38;;;;;;;;;;;22.70;64.40;;;;;;4983728;28;19930;-76
2023/07/31 11:24:06;;;;;;;;;;;22.70;64.50;;;;;;4985298;28;20387;-76
2023/07/31 11:26:33;;;;;;;;;;;22.80;64.40;;;;;;4982821;28;20411;-76
2023/07/31 11:28:59;;;;;;;;;;;22.80;64.20;;;;;;4983084;28;20504;-76
2023/07/31 11:31:26;;;;;;;;;;;22.90;63.70;;;;;;4995113;28;19944;-77
2023/07/31 11:34:04;;;;;;;;;;;22.90;63.70;;;;;;5006225;28;19929;-75
2023/07/31 11:36:31;;;;;;;;;;;22.90;63.30;;;;;;5003146;28;19929;-76
2023/07/31 11:39:06;;;;;;;;;;;22.90;63.10;;;;;;5004982;28;19929;-76
2023/07/31 11:41:33;;;;;;;;;;;22.90;63.30;;;;;;5002235;28;19964;-76
2023/07/31 11:44:00;;;;;;;;;;;22.90;63.50;;;;;;5003758;28;19930;-75
2023/07/31 11:46:26;;;;;;;;;;;23.00;63.80;;;;;;4999316;28;19929;-75
2023/07/31 11:48:59;;;;;;;;;;;23.00;63.80;;;;;;5003856;28;19930;-76
2023/07/31 11:51:26;;;;;;;;;;;23.00;63.50;;;;;;5002047;28;19941;-75
2023/07/31 11:53:54;;;;;;;;;;;23.00;63.60;;;;;;5003421;28;20338;-76
2023/07/31 11:56:24;;;;;;;;;;;23.10;63.80;;;;;;5004319;28;19930;-76
2023/07/31 11:58:52;;;;;;;;;;;23.10;63.80;;;;;;5001421;28;19929;-76
2023/07/31 12:01:19;;;;;;;;;;;23.10;63.70;;;;;;4999501;28;19941;-75
2023/07/31 12:03:46;;;;;;;;;;;23.10;63.00;;;;;;5003367;28;19975;-77
2023/07/31 12:06:13;;;;;;;;;;;23.20;63.20;;;;;;5002783;28;19929;-76
2023/07/31 12:08:39;;;;;;;;;;;23.20;63.20;;;;;;5006074;28;19937;-76
2023/07/31 12:11:09;;;;;;;;;;;23.20;63.20;;;;;;5006101;28;19941;-76
2023/07/31 12:13:37;;;;;;;;;;;23.20;63.60;;;;;;5005434;28;19929;-77
2023/07/31 12:16:04;;;;;;;;;;;23.20;63.00;;;;;;4998307;28;19930;-75
2023/07/31 12:18:34;;;;;;;;;;;23.30;63.20;;;;;;4984240;28;19937;-77
2023/07/31 12:21:03;;;;;;;;;;;23.30;63.20;;;;;;4982298;28;20076;-75
2023/07/31 12:23:31;;;;;;;;;;;23.30;63.10;;;;;;4986146;28;20479;-76
2023/07/31 12:26:01;;;;;;;;;;;23.30;62.50;;;;;;4986222;28;19930;-77
2023/07/31 12:28:27;;;;;;;;;;;23.40;62.10;;;;;;4985196;28;20031;-75
2023/07/31 12:30:57;;;;;;;;;;;23.50;62.40;;;;;;4992061;28;19929;-76
2023/07/31 12:33:24;;;;;;;;;;;23.50;62.50;;;;;;4999026;28;19937;-76
2023/07/31 12:35:50;;;;;;;;;;;23.50;61.80;;;;;;5000276;28;19936;-76
2023/07/31 12:38:17;;;;;;;;;;;23.50;61.80;;;;;;5002996;28;19930;-75
2023/07/31 12:40:43;;;;;;;;;;;23.60;61.80;;;;;;4996021;28;19929;-75
2023/07/31 12:43:10;;;;;;;;;;;23.60;62.00;;;;;;5002115;28;19933;-76
2023/07/31 12:45:36;;;;;;;;;;;23.70;61.70;;;;;;5005095;28;19933;-76
2023/07/31 12:48:04;;;;;;;;;;;23.80;61.60;;;;;;5004281;28;20386;-76
2023/07/31 12:50:31;;;;;;;;;;;23.90;61.40;;;;;;5002599;28;19930;-75
2023/07/31 12:52:58;;;;;;;;;;;23.90;60.50;;;;;;5006257;28;19933;-76
2023/07/31 12:55:24;;;;;;;;;;;23.90;60.20;;;;;;5007583;28;19940;-76
2023/07/31 12:57:51;;;;;;;;;;;24.00;60.70;;;;;;5006404;28;19929;-76
2023/07/31 13:00:18;;;;;;;;;;;24.00;59.90;;;;;;5002838;28;19929;-75
2023/07/31 13:02:44;;;;;;;;;;;24.00;60.30;;;;;;5006488;28;19940;-77
2023/07/31 13:05:13;;;;;;;;;;;24.00;60.50;;;;;;5008365;28;19929;-76
2023/07/31 13:07:39;;;;;;;;;;;24.10;60.40;;;;;;5006607;28;19929;-76
2023/07/31 13:10:07;;;;;;;;;;;24.10;60.40;;;;;;5007508;28;19941;-76
2023/07/31 13:12:33;;;;;;;;;;;24.10;60.30;;;;;;5006959;28;19930;-76
2023/07/31 13:15:00;;;;;;;;;;;24.10;59.80;;;;;;5006637;28;19929;-76
2023/07/31 13:17:27;;;;;;;;;;;24.10;60.00;;;;;;5005296;28;19964;-76
2023/07/31 13:19:53;;;;;;;;;;;24.10;60.20;;;;;;5005653;28;19984;-76
2023/07/31 13:22:21;;;;;;;;;;;24.10;60.40;;;;;;5008237;28;19929;-76
2023/07/31 13:24:48;;;;;;;;;;;24.10;60.40;;;;;;5007352;28;19929;-76
2023/07/31 13:27:16;;;;;;;;;;;24.10;60.00;;;;;;5004228;28;19961;-76
2023/07/31 13:29:43;;;;;;;;;;;24.10;60.40;;;;;;5004930;28;19973;-76
2023/07/31 13:32:09;;;;;;;;;;;24.20;60.40;;;;;;5005854;28;19984;-77
2023/07/31 13:34:36;;;;;;;;;;;24.10;60.20;;;;;;5000998;28;19940;-77
2023/07/31 13:37:03;;;;;;;;;;;24.10;60.40;;;;;;5004109;28;19929;-77
2023/07/31 13:39:31;;;;;;;;;;;24.20;60.60;;;;;;5006170;28;20296;-76
2023/07/31 13:41:57;;;;;;;;;;;24.20;60.60;;;;;;5004752;28;19929;-75
2023/07/31 13:44:24;;;;;;;;;;;24.10;60.70;;;;;;5005929;28;19925;-76
2023/07/31 13:46:50;;;;;;;;;;;24.10;61.00;;;;;;5005610;28;19941;-76
2023/07/31 13:49:17;;;;;;;;;;;24.20;61.20;;;;;;5008075;28;19937;-75
2023/07/31 13:51:43;;;;;;;;;;;24.10;61.00;;;;;;5004587;28;19930;-76
2023/07/31 13:54:11;;;;;;;;;;;24.10;60.60;;;;;;5007891;28;19934;-76
2023/07/31 13:56:39;;;;;;;;;;;24.10;60.60;;;;;;5001959;28;20039;-75
2023/07/31 13:59:05;;;;;;;;;;;24.10;60.80;;;;;;5007420;28;19941;-75
2023/07/31 14:01:32;;;;;;;;;;;24.10;60.80;;;;;;4994701;28;19941;-74
2023/07/31 14:03:58;;;;;;;;;;;24.10;60.80;;;;;;4987074;28;19937;-76
2023/07/31 14:06:26;;;;;;;;;;;24.10;61.20;;;;;;4987939;28;19941;-76
2023/07/31 14:08:52;;;;;;;;;;;24.20;61.30;;;;;;4987211;28;19934;-77
2023/07/31 14:11:19;;;;;;;;;;;24.20;61.30;;;;;;4987566;28;19930;-75
2023/07/31 14:13:47;;;;;;;;;;;24.10;61.30;;;;;;4986182;28;19934;-76
2023/07/31 14:16:13;;;;;;;;;;;24.10;61.30;;;;;;4994206;28;19938;-76